sensor_id;sensor_type;location;lat;lon;timestamp;pressure;altitude;pressure_sealevel;temperature
27715;BMP280;16051;53.024;8.630;2023-02-28T00:01:54;103107.44;;;3.78
27715;BMP280;16051;53.024;8.630;2023-02-28T00:05:58;103104.34;;;3.79
27715;BMP280;16051;53.024;8.630;2023-02-28T00:10:01;103110.25;;;3.85
27715;BMP280;16051;53.024;8.630;2023-02-28T00:14:03;103112.09;;;3.77
27715;BMP280;16051;53.024;8.630;2023-02-28T00:18:09;103107.38;;;3.74
27715;BMP280;16051;53.024;8.630;2023-02-28T00:22:14;103112.09;;;3.77
27715;BMP280;16051;53.024;8.630;2023-02-28T00:26:16;103113.88;;;3.66
27715;BMP280;16051;53.024;8.630;2023-02-28T00:30:21;103122.97;;;3.74
27715;BMP280;16051;53.024;8.630;2023-02-28T00:34:24;103111.63;;;3.72
27715;BMP280;16051;53.024;8.630;2023-02-28T00:38:29;103114.78;;;3.74
27715;BMP280;16051;53.024;8.630;2023-02-28T00:42:31;103113.25;;;3.76
27715;BMP280;16051;53.024;8.630;2023-02-28T00:46:33;103109.25;;;3.70
27715;BMP280;16051;53.024;8.630;2023-02-28T00:50:36;103120.56;;;3.69
27715;BMP280;16051;53.024;8.630;2023-02-28T00:54:50;103122.50;;;3.68
27715;BMP280;16051;53.024;8.630;2023-02-28T00:58:56;103122.88;;;3.67
27715;BMP280;16051;53.024;8.630;2023-02-28T01:02:58;103125.59;;;3.67
27715;BMP280;16051;53.024;8.630;2023-02-28T01:07:00;103124.41;;;3.64
27715;BMP280;16051;53.024;8.630;2023-02-28T01:11:11;103118.88;;;3.61
27715;BMP280;16051;53.024;8.630;2023-02-28T01:15:13;103115.34;;;3.60
27715;BMP280;16051;53.024;8.630;2023-02-28T01:19:16;103117.00;;;3.65
27715;BMP280;16051;53.024;8.630;2023-02-28T01:23:20;103110.56;;;3.54
27715;BMP280;16051;53.024;8.630;2023-02-28T01:27:25;103128.50;;;3.55
27715;BMP280;16051;53.024;8.630;2023-02-28T01:31:27;103124.22;;;3.54
27715;BMP280;16051;53.024;8.630;2023-02-28T01:35:32;103137.88;;;3.54
27715;BMP280;16051;53.024;8.630;2023-02-28T01:39:37;103130.84;;;3.53
27715;BMP280;16051;53.024;8.630;2023-02-28T01:43:59;103129.69;;;3.54
27715;BMP280;16051;53.024;8.630;2023-02-28T01:48:08;103125.03;;;3.54
27715;BMP280;16051;53.024;8.630;2023-02-28T01:52:43;103124.06;;;3.43
27715;BMP280;16051;53.024;8.630;2023-02-28T01:56:51;103137.78;;;3.46
27715;BMP280;16051;53.024;8.630;2023-02-28T02:00:57;103126.50;;;3.52
27715;BMP280;16051;53.024;8.630;2023-02-28T02:05:05;103124.22;;;3.54
27715;BMP280;16051;53.024;8.630;2023-02-28T02:09:07;103121.38;;;3.46
27715;BMP280;16051;53.024;8.630;2023-02-28T02:13:56;103123.66;;;3.44
27715;BMP280;16051;53.024;8.630;2023-02-28T02:18:16;103111.53;;;3.42
27715;BMP280;16051;53.024;8.630;2023-02-28T02:27:31;103117.66;;;3.35
27715;BMP280;16051;53.024;8.630;2023-02-28T02:32:09;103117.66;;;3.35
27715;BMP280;16051;53.024;8.630;2023-02-28T02:36:22;103115.72;;;3.36
27715;BMP280;16051;53.024;8.630;2023-02-28T02:40:32;103109.47;;;3.35
27715;BMP280;16051;53.024;8.630;2023-02-28T02:44:44;103114.88;;;3.32
27715;BMP280;16051;53.024;8.630;2023-02-28T02:48:49;103106.22;;;3.30
27715;BMP280;16051;53.024;8.630;2023-02-28T02:52:59;103110.38;;;3.20
27715;BMP280;16051;53.024;8.630;2023-02-28T02:57:07;103109.88;;;3.15
27715;BMP280;16051;53.024;8.630;2023-02-28T03:01:15;103109.50;;;3.16
27715;BMP280;16051;53.024;8.630;2023-02-28T03:05:21;103112.69;;;3.18
27715;BMP280;16051;53.024;8.630;2023-02-28T03:09:26;103117.28;;;3.14
27715;BMP280;16051;53.024;8.630;2023-02-28T03:13:57;103119.59;;;3.12
27715;BMP280;16051;53.024;8.630;2023-02-28T03:18:08;103119.16;;;3.10
27715;BMP280;16051;53.024;8.630;2023-02-28T03:22:39;103112.13;;;3.09
27715;BMP280;16051;53.024;8.630;2023-02-28T03:26:50;103115.13;;;3.04
27715;BMP280;16051;53.024;8.630;2023-02-28T03:30:59;103114.78;;;3.06
27715;BMP280;16051;53.024;8.630;2023-02-28T03:35:09;103115.06;;;3.01
27715;BMP280;16051;53.024;8.630;2023-02-28T03:39:35;103127.97;;;3.00
27715;BMP280;16051;53.024;8.630;2023-02-28T03:43:50;103124.84;;;3.02
27715;BMP280;16051;53.024;8.630;2023-02-28T03:47:56;103126.25;;;2.92
27715;BMP280;16051;53.024;8.630;2023-02-28T03:52:02;103118.31;;;2.87
27715;BMP280;16051;53.024;8.630;2023-02-28T03:56:12;103130.03;;;2.87
27715;BMP280;16051;53.024;8.630;2023-02-28T04:00:21;103119.63;;;2.93
27715;BMP280;16051;53.024;8.630;2023-02-28T04:04:29;103123.44;;;2.88
27715;BMP280;16051;53.024;8.630;2023-02-28T04:08:31;103138.22;;;2.87
27715;BMP280;16051;53.024;8.630;2023-02-28T04:12:33;103133.13;;;2.86
27715;BMP280;16051;53.024;8.630;2023-02-28T04:16:39;103133.84;;;2.83
27715;BMP280;16051;53.024;8.630;2023-02-28T04:20:42;103140.75;;;2.77
27715;BMP280;16051;53.024;8.630;2023-02-28T04:24:44;103149.53;;;2.67
27715;BMP280;16051;53.024;8.630;2023-02-28T04:28:47;103140.16;;;2.68
27715;BMP280;16051;53.024;8.630;2023-02-28T04:32:50;103142.91;;;2.68
27715;BMP280;16051;53.024;8.630;2023-02-28T04:36:54;103145.34;;;2.73
27715;BMP280;16051;53.024;8.630;2023-02-28T04:40:57;103146.50;;;2.72
27715;BMP280;16051;53.024;8.630;2023-02-28T04:44:59;103140.97;;;2.68
27715;BMP280;16051;53.024;8.630;2023-02-28T04:49:03;103155.31;;;2.65
27715;BMP280;16051;53.024;8.630;2023-02-28T04:53:09;103144.00;;;2.63
27715;BMP280;16051;53.024;8.630;2023-02-28T04:57:11;103140.88;;;2.65
27715;BMP280;16051;53.024;8.630;2023-02-28T05:01:21;103143.19;;;2.63
27715;BMP280;16051;53.024;8.630;2023-02-28T05:05:25;103138.53;;;2.63
27715;BMP280;16051;53.024;8.630;2023-02-28T05:09:27;103143.06;;;2.56
27715;BMP280;16051;53.024;8.630;2023-02-28T05:13:30;103145.84;;;2.59
27715;BMP280;16051;53.024;8.630;2023-02-28T05:17:32;103143.84;;;2.56
27715;BMP280;16051;53.024;8.630;2023-02-28T05:21:38;103146.06;;;2.51
27715;BMP280;16051;53.024;8.630;2023-02-28T05:25:41;103144.56;;;2.53
27715;BMP280;16051;53.024;8.630;2023-02-28T05:29:43;103152.31;;;2.51
27715;BMP280;16051;53.024;8.630;2023-02-28T05:33:45;103153.66;;;2.41
27715;BMP280;16051;53.024;8.630;2023-02-28T05:38:09;103152.63;;;2.30
27715;BMP280;16051;53.024;8.630;2023-02-28T05:42:11;103157.31;;;2.14
27715;BMP280;16051;53.024;8.630;2023-02-28T05:46:16;103151.53;;;2.16
27715;BMP280;16051;53.024;8.630;2023-02-28T05:50:18;103157.53;;;2.06
27715;BMP280;16051;53.024;8.630;2023-02-28T05:54:22;103160.53;;;2.01
27715;BMP280;16051;53.024;8.630;2023-02-28T05:58:24;103167.19;;;2.03
27715;BMP280;16051;53.024;8.630;2023-02-28T06:03:00;103158.50;;;1.97
27715;BMP280;16051;53.024;8.630;2023-02-28T06:07:09;103178.13;;;1.87
27715;BMP280;16051;53.024;8.630;2023-02-28T06:11:13;103173.47;;;1.88
27715;BMP280;16051;53.024;8.630;2023-02-28T06:15:43;103178.31;;;1.79
27715;BMP280;16051;53.024;8.630;2023-02-28T06:19:45;103195.97;;;1.69
27715;BMP280;16051;53.024;8.630;2023-02-28T06:23:48;103195.97;;;1.69
27715;BMP280;16051;53.024;8.630;2023-02-28T06:27:52;103199.94;;;1.72
27715;BMP280;16051;53.024;8.630;2023-02-28T06:31:55;103186.13;;;1.65
27715;BMP280;16051;53.024;8.630;2023-02-28T06:35:57;103194.72;;;1.67
27715;BMP280;16051;53.024;8.630;2023-02-28T06:39:59;103199.31;;;1.63
27715;BMP280;16051;53.024;8.630;2023-02-28T06:44:03;103204.78;;;1.63
27715;BMP280;16051;53.024;8.630;2023-02-28T06:48:06;103202.81;;;1.63
27715;BMP280;16051;53.024;8.630;2023-02-28T06:52:08;103204.88;;;1.66
27715;BMP280;16051;53.024;8.630;2023-02-28T06:56:15;103213.38;;;1.65
27715;BMP280;16051;53.024;8.630;2023-02-28T07:00:20;103199.03;;;1.68
27715;BMP280;16051;53.024;8.630;2023-02-28T07:04:22;103207.50;;;1.63
27715;BMP280;16051;53.024;8.630;2023-02-28T07:08:25;103204.88;;;1.66
27715;BMP280;16051;53.024;8.630;2023-02-28T07:12:28;103219.72;;;1.69
27715;BMP280;16051;53.024;8.630;2023-02-28T07:16:32;103218.91;;;1.68
27715;BMP280;16051;53.024;8.630;2023-02-28T07:20:35;103225.06;;;1.65
27715;BMP280;16051;53.024;8.630;2023-02-28T07:24:37;103225.59;;;1.71
27715;BMP280;16051;53.024;8.630;2023-02-28T07:28:39;103226.16;;;1.76
27715;BMP280;16051;53.024;8.630;2023-02-28T07:32:44;103223.94;;;1.82
27715;BMP280;16051;53.024;8.630;2023-02-28T07:36:53;103231.06;;;1.86
27715;BMP280;16051;53.024;8.630;2023-02-28T07:40:55;103233.16;;;1.93
27715;BMP280;16051;53.024;8.630;2023-02-28T07:44:57;103236.41;;;2.14
27715;BMP280;16051;53.024;8.630;2023-02-28T07:49:01;103240.19;;;2.41
27715;BMP280;16051;53.024;8.630;2023-02-28T07:53:03;103232.63;;;2.69
27715;BMP280;16051;53.024;8.630;2023-02-28T07:57:05;103240.41;;;2.86
27715;BMP280;16051;53.024;8.630;2023-02-28T08:01:09;103238.50;;;3.06
27715;BMP280;16051;53.024;8.630;2023-02-28T08:05:13;103233.22;;;3.36
27715;BMP280;16051;53.024;8.630;2023-02-28T08:09:15;103236.72;;;3.56
27715;BMP280;16051;53.024;8.630;2023-02-28T08:13:18;103238.56;;;3.71
27715;BMP280;16051;53.024;8.630;2023-02-28T08:17:20;103237.72;;;3.89
27715;BMP280;16051;53.024;8.630;2023-02-28T08:21:23;103247.69;;;4.01
27715;BMP280;16051;53.024;8.630;2023-02-28T08:25:25;103248.66;;;4.12
27715;BMP280;16051;53.024;8.630;2023-02-28T08:29:28;103247.28;;;4.25
27715;BMP280;16051;53.024;8.630;2023-02-28T08:33:30;103247.81;;;4.34
27715;BMP280;16051;53.024;8.630;2023-02-28T08:38:08;103238.09;;;4.37
27715;BMP280;16051;53.024;8.630;2023-02-28T08:42:10;103248.44;;;4.51
27715;BMP280;16051;53.024;8.630;2023-02-28T08:46:13;103247.66;;;4.50
27715;BMP280;16051;53.024;8.630;2023-02-28T08:50:15;103248.34;;;4.43
27715;BMP280;16051;53.024;8.630;2023-02-28T08:54:19;103245.97;;;4.42
27715;BMP280;16051;53.024;8.630;2023-02-28T08:58:21;103255.91;;;4.54
27715;BMP280;16051;53.024;8.630;2023-02-28T09:02:23;103254.44;;;4.60
27715;BMP280;16051;53.024;8.630;2023-02-28T09:06:28;103252.63;;;4.71
27715;BMP280;16051;53.024;8.630;2023-02-28T09:10:32;103260.13;;;4.74
27715;BMP280;16051;53.024;8.630;2023-02-28T09:14:34;103257.00;;;4.75
27715;BMP280;16051;53.024;8.630;2023-02-28T09:18:37;103255.56;;;4.85
27715;BMP280;16051;53.024;8.630;2023-02-28T09:22:39;103251.41;;;4.94
27715;BMP280;16051;53.024;8.630;2023-02-28T09:27:02;103258.69;;;5.13
27715;BMP280;16051;53.024;8.630;2023-02-28T09:31:04;103255.66;;;5.22
27715;BMP280;16051;53.024;8.630;2023-02-28T09:35:07;103253.09;;;5.39
27715;BMP280;16051;53.024;8.630;2023-02-28T09:39:26;103256.59;;;5.73
27715;BMP280;16051;53.024;8.630;2023-02-28T09:43:35;103250.66;;;6.08
27715;BMP280;16051;53.024;8.630;2023-02-28T09:47:44;103253.25;;;6.38
27715;BMP280;16051;53.024;8.630;2023-02-28T09:51:55;103270.78;;;6.77
27715;BMP280;16051;53.024;8.630;2023-02-28T09:56:03;103276.50;;;7.23
27715;BMP280;16051;53.024;8.630;2023-02-28T10:00:18;103264.41;;;7.56
27715;BMP280;16051;53.024;8.630;2023-02-28T10:04:42;103261.31;;;8.00
27715;BMP280;16051;53.024;8.630;2023-02-28T10:08:58;103267.22;;;8.20
27715;BMP280;16051;53.024;8.630;2023-02-28T10:13:17;103268.84;;;8.35
27715;BMP280;16051;53.024;8.630;2023-02-28T10:17:25;103268.34;;;8.75
27715;BMP280;16051;53.024;8.630;2023-02-28T10:21:31;103275.38;;;8.98
27715;BMP280;16051;53.024;8.630;2023-02-28T10:25:51;103281.31;;;8.93
27715;BMP280;16051;53.024;8.630;2023-02-28T10:29:57;103272.97;;;9.14
27715;BMP280;16051;53.024;8.630;2023-02-28T10:34:01;103287.59;;;9.00
27715;BMP280;16051;53.024;8.630;2023-02-28T10:38:16;103273.31;;;9.19
27715;BMP280;16051;53.024;8.630;2023-02-28T10:42:23;103266.84;;;9.54
27715;BMP280;16051;53.024;8.630;2023-02-28T10:46:33;103271.13;;;10.14
27715;BMP280;16051;53.024;8.630;2023-02-28T10:50:44;103266.56;;;10.45
27715;BMP280;16051;53.024;8.630;2023-02-28T10:55:14;103267.22;;;10.11
27715;BMP280;16051;53.024;8.630;2023-02-28T10:59:29;103262.41;;;10.26
27715;BMP280;16051;53.024;8.630;2023-02-28T11:03:34;103261.41;;;10.84
27715;BMP280;16051;53.024;8.630;2023-02-28T11:08:06;103257.53;;;10.41
27715;BMP280;16051;53.024;8.630;2023-02-28T11:12:22;103253.63;;;11.36
27715;BMP280;16051;53.024;8.630;2023-02-28T11:16:33;103244.00;;;11.74
27715;BMP280;16051;53.024;8.630;2023-02-28T11:20:36;103247.66;;;11.68
27715;BMP280;16051;53.024;8.630;2023-02-28T11:24:45;103243.78;;;11.89
27715;BMP280;16051;53.024;8.630;2023-02-28T11:28:48;103244.50;;;12.16
27715;BMP280;16051;53.024;8.630;2023-02-28T11:32:50;103241.06;;;12.31
27715;BMP280;16051;53.024;8.630;2023-02-28T11:36:55;103239.88;;;12.32
27715;BMP280;16051;53.024;8.630;2023-02-28T11:41:17;103242.03;;;11.75
27715;BMP280;16051;53.024;8.630;2023-02-28T11:51:06;103233.00;;;11.41
27715;BMP280;16051;53.024;8.630;2023-02-28T11:55:27;103235.03;;;10.76
27715;BMP280;16051;53.024;8.630;2023-02-28T11:59:48;103225.75;;;10.59
27715;BMP280;16051;53.024;8.630;2023-02-28T12:04:17;103218.66;;;10.92
27715;BMP280;16051;53.024;8.630;2023-02-28T12:09:17;103220.47;;;11.59
27715;BMP280;16051;53.024;8.630;2023-02-28T12:13:31;103205.94;;;11.52
27715;BMP280;16051;53.024;8.630;2023-02-28T12:17:51;103201.03;;;11.63
27715;BMP280;16051;53.024;8.630;2023-02-28T12:22:30;103192.91;;;11.52
27715;BMP280;16051;53.024;8.630;2023-02-28T12:26:38;103179.63;;;11.40
27715;BMP280;16051;53.024;8.630;2023-02-28T12:30:49;103185.44;;;11.22
27715;BMP280;16051;53.024;8.630;2023-02-28T12:35:00;103172.91;;;10.84
27715;BMP280;16051;53.024;8.630;2023-02-28T12:39:10;103169.38;;;11.14
27715;BMP280;16051;53.024;8.630;2023-02-28T12:43:21;103165.56;;;11.01
27715;BMP280;16051;53.024;8.630;2023-02-28T12:47:25;103164.50;;;10.61
27715;BMP280;16051;53.024;8.630;2023-02-28T12:51:41;103155.44;;;10.60
27715;BMP280;16051;53.024;8.630;2023-02-28T12:55:55;103152.56;;;10.67
27715;BMP280;16051;53.024;8.630;2023-02-28T13:00:04;103144.25;;;10.71
27715;BMP280;16051;53.024;8.630;2023-02-28T13:04:47;103134.34;;;10.73
27715;BMP280;16051;53.024;8.630;2023-02-28T13:09:17;103134.53;;;10.90
27715;BMP280;16051;53.024;8.630;2023-02-28T13:13:23;103134.16;;;10.88
27715;BMP280;16051;53.024;8.630;2023-02-28T13:17:26;103126.41;;;11.06
27715;BMP280;16051;53.024;8.630;2023-02-28T13:21:30;103124.41;;;11.06
27715;BMP280;16051;53.024;8.630;2023-02-28T13:25:52;103129.38;;;11.18
27715;BMP280;16051;53.024;8.630;2023-02-28T13:39:47;103112.03;;;11.41
27715;BMP280;16051;53.024;8.630;2023-02-28T13:44:04;103112.84;;;11.61
27715;BMP280;16051;53.024;8.630;2023-02-28T13:48:18;103117.47;;;12.14
27715;BMP280;16051;53.024;8.630;2023-02-28T13:52:47;103111.78;;;12.41
27715;BMP280;16051;53.024;8.630;2023-02-28T13:57:10;103102.41;;;12.55
27715;BMP280;16051;53.024;8.630;2023-02-28T14:06:15;103093.53;;;12.44
27715;BMP280;16051;53.024;8.630;2023-02-28T14:10:26;103089.22;;;12.59
27715;BMP280;16051;53.024;8.630;2023-02-28T14:14:55;103093.25;;;12.38
27715;BMP280;16051;53.024;8.630;2023-02-28T14:19:05;103089.94;;;11.84
27715;BMP280;16051;53.024;8.630;2023-02-28T14:23:22;103085.03;;;11.68
27715;BMP280;16051;53.024;8.630;2023-02-28T14:27:50;103094.09;;;11.49
27715;BMP280;16051;53.024;8.630;2023-02-28T14:32:02;103090.66;;;10.92
27715;BMP280;16051;53.024;8.630;2023-02-28T14:36:16;103089.41;;;10.35
27715;BMP280;16051;53.024;8.630;2023-02-28T14:40:26;103086.25;;;10.37
27715;BMP280;16051;53.024;8.630;2023-02-28T14:44:29;103096.19;;;10.92
27715;BMP280;16051;53.024;8.630;2023-02-28T14:48:34;103097.78;;;10.62
27715;BMP280;16051;53.024;8.630;2023-02-28T14:52:38;103084.84;;;10.82
27715;BMP280;16051;53.024;8.630;2023-02-28T14:56:40;103088.09;;;11.04
27715;BMP280;16051;53.024;8.630;2023-02-28T15:00:50;103089.22;;;10.80
27715;BMP280;16051;53.024;8.630;2023-02-28T15:04:55;103090.97;;;10.36
27715;BMP280;16051;53.024;8.630;2023-02-28T15:09:13;103097.34;;;10.33
27715;BMP280;16051;53.024;8.630;2023-02-28T15:13:18;103091.25;;;10.12
27715;BMP280;16051;53.024;8.630;2023-02-28T15:17:31;103100.94;;;9.89
27715;BMP280;16051;53.024;8.630;2023-02-28T15:21:36;103092.22;;;9.95
27715;BMP280;16051;53.024;8.630;2023-02-28T15:26:01;103103.38;;;9.80
27715;BMP280;16051;53.024;8.630;2023-02-28T15:30:08;103093.41;;;9.94
27715;BMP280;16051;53.024;8.630;2023-02-28T15:34:21;103094.06;;;9.67
27715;BMP280;16051;53.024;8.630;2023-02-28T15:38:26;103093.09;;;9.44
27715;BMP280;16051;53.024;8.630;2023-02-28T15:42:30;103091.56;;;9.39
27715;BMP280;16051;53.024;8.630;2023-02-28T15:46:33;103081.09;;;9.13
27715;BMP280;16051;53.024;8.630;2023-02-28T15:50:39;103090.97;;;9.10
27715;BMP280;16051;53.024;8.630;2023-02-28T15:54:46;103092.28;;;8.92
27715;BMP280;16051;53.024;8.630;2023-02-28T15:58:54;103087.09;;;9.01
27715;BMP280;16051;53.024;8.630;2023-02-28T16:02:57;103093.34;;;9.05
27715;BMP280;16051;53.024;8.630;2023-02-28T16:07:14;103085.94;;;8.95
27715;BMP280;16051;53.024;8.630;2023-02-28T16:11:29;103091.19;;;8.78
27715;BMP280;16051;53.024;8.630;2023-02-28T16:15:38;103082.53;;;8.73
27715;BMP280;16051;53.024;8.630;2023-02-28T16:19:43;103072.44;;;8.45
27715;BMP280;16051;53.024;8.630;2023-02-28T16:23:53;103074.44;;;8.27
27715;BMP280;16051;53.024;8.630;2023-02-28T16:27:58;103081.53;;;8.35
27715;BMP280;16051;53.024;8.630;2023-02-28T16:32:05;103080.78;;;8.20
27715;BMP280;16051;53.024;8.630;2023-02-28T16:36:24;103076.44;;;8.19
27715;BMP280;16051;53.024;8.630;2023-02-28T16:40:26;103087.09;;;8.03
27715;BMP280;16051;53.024;8.630;2023-02-28T16:44:33;103078.84;;;7.96
27715;BMP280;16051;53.024;8.630;2023-02-28T16:48:37;103088.72;;;7.79
27715;BMP280;16051;53.024;8.630;2023-02-28T16:52:42;103085.22;;;7.58
27715;BMP280;16051;53.024;8.630;2023-02-28T16:56:47;103091.50;;;7.55
27715;BMP280;16051;53.024;8.630;2023-02-28T17:00:50;103102.88;;;7.46
27715;BMP280;16051;53.024;8.630;2023-02-28T17:05:23;103086.38;;;7.46
27715;BMP280;16051;53.024;8.630;2023-02-28T17:09:25;103102.09;;;7.38
27715;BMP280;16051;53.024;8.630;2023-02-28T17:13:27;103097.38;;;7.32
27715;BMP280;16051;53.024;8.630;2023-02-28T17:17:30;103098.97;;;7.33
27715;BMP280;16051;53.024;8.630;2023-02-28T17:21:33;103102.09;;;7.24
27715;BMP280;16051;53.024;8.630;2023-02-28T17:25:35;103105.25;;;7.23
27715;BMP280;16051;53.024;8.630;2023-02-28T17:29:38;103113.88;;;7.18
27715;BMP280;16051;53.024;8.630;2023-02-28T17:33:40;103112.28;;;7.10
27715;BMP280;16051;53.024;8.630;2023-02-28T17:37:52;103115.78;;;6.92
27715;BMP280;16051;53.024;8.630;2023-02-28T17:41:55;103108.28;;;6.79
27715;BMP280;16051;53.024;8.630;2023-02-28T17:46:01;103101.94;;;6.54
27715;BMP280;16051;53.024;8.630;2023-02-28T17:50:16;103113.72;;;6.61
27715;BMP280;16051;53.024;8.630;2023-02-28T17:54:20;103121.94;;;6.51
27715;BMP280;16051;53.024;8.630;2023-02-28T17:58:23;103121.47;;;6.41
27715;BMP280;16051;53.024;8.630;2023-02-28T18:02:26;103121.00;;;6.25
27715;BMP280;16051;53.024;8.630;2023-02-28T18:06:40;103128.78;;;6.13
27715;BMP280;16051;53.024;8.630;2023-02-28T18:10:50;103126.44;;;6.11
27715;BMP280;16051;53.024;8.630;2023-02-28T18:14:52;103137.25;;;5.93
27715;BMP280;16051;53.024;8.630;2023-02-28T18:19:05;103131.66;;;5.79
27715;BMP280;16051;53.024;8.630;2023-02-28T18:23:09;103121.78;;;5.68
27715;BMP280;16051;53.024;8.630;2023-02-28T18:27:13;103124.78;;;5.52
27715;BMP280;16051;53.024;8.630;2023-02-28T18:31:18;103120.78;;;5.42
27715;BMP280;16051;53.024;8.630;2023-02-28T18:35:23;103114.44;;;5.35
27715;BMP280;16051;53.024;8.630;2023-02-28T18:39:35;103120.56;;;5.21
27715;BMP280;16051;53.024;8.630;2023-02-28T18:43:41;103121.22;;;5.08
27715;BMP280;16051;53.024;8.630;2023-02-28T18:47:44;103112.50;;;4.95
27715;BMP280;16051;53.024;8.630;2023-02-28T18:51:46;103110.00;;;4.83
27715;BMP280;16051;53.024;8.630;2023-02-28T18:55:49;103111.00;;;4.68
27715;BMP280;16051;53.024;8.630;2023-02-28T19:00:08;103109.72;;;4.58
27715;BMP280;16051;53.024;8.630;2023-02-28T19:04:11;103110.59;;;4.36
27715;BMP280;16051;53.024;8.630;2023-02-28T19:08:14;103101.94;;;4.30
27715;BMP280;16051;53.024;8.630;2023-02-28T19:12:17;103109.94;;;4.16
27715;BMP280;16051;53.024;8.630;2023-02-28T19:16:22;103108.53;;;4.00
27715;BMP280;16051;53.024;8.630;2023-02-28T19:20:32;103101.81;;;3.93
27715;BMP280;16051;53.024;8.630;2023-02-28T19:24:35;103111.84;;;3.86
27715;BMP280;16051;53.024;8.630;2023-02-28T19:28:37;103117.63;;;3.81
27715;BMP280;16051;53.024;8.630;2023-02-28T19:32:42;103113.41;;;3.61
27715;BMP280;16051;53.024;8.630;2023-02-28T19:36:44;103113.22;;;3.50
27715;BMP280;16051;53.024;8.630;2023-02-28T19:40:47;103112.31;;;3.20
27715;BMP280;16051;53.024;8.630;2023-02-28T19:44:49;103125.22;;;3.23
27715;BMP280;16051;53.024;8.630;2023-02-28T19:48:54;103116.06;;;3.12
27715;BMP280;16051;53.024;8.630;2023-02-28T19:52:56;103123.38;;;3.08
27715;BMP280;16051;53.024;8.630;2023-02-28T19:56:59;103139.22;;;2.98
27715;BMP280;16051;53.024;8.630;2023-02-28T20:01:07;103133.28;;;2.93
27715;BMP280;16051;53.024;8.630;2023-02-28T20:05:11;103140.03;;;2.80
27715;BMP280;16051;53.024;8.630;2023-02-28T20:09:13;103142.34;;;2.78
27715;BMP280;16051;53.024;8.630;2023-02-28T20:13:16;103145.56;;;2.64
27715;BMP280;16051;53.024;8.630;2023-02-28T20:17:21;103139.09;;;2.53
27715;BMP280;16051;53.024;8.630;2023-02-28T20:21:25;103145.19;;;2.46
27715;BMP280;16051;53.024;8.630;2023-02-28T20:25:27;103142.69;;;2.38
27715;BMP280;16051;53.024;8.630;2023-02-28T20:29:29;103146.38;;;2.30
27715;BMP280;16051;53.024;8.630;2023-02-28T20:33:31;103147.03;;;2.23
27715;BMP280;16051;53.024;8.630;2023-02-28T20:37:35;103142.81;;;2.10
27715;BMP280;16051;53.024;8.630;2023-02-28T20:41:38;103150.91;;;2.22
27715;BMP280;16051;53.024;8.630;2023-02-28T20:45:50;103152.75;;;2.18
27715;BMP280;16051;53.024;8.630;2023-02-28T20:49:52;103144.31;;;2.08
27715;BMP280;16051;53.024;8.630;2023-02-28T20:54:13;103145.22;;;1.96
27715;BMP280;16051;53.024;8.630;2023-02-28T20:58:15;103146.22;;;1.88
27715;BMP280;16051;53.024;8.630;2023-02-28T21:02:18;103146.81;;;1.81
27715;BMP280;16051;53.024;8.630;2023-02-28T21:06:24;103152.00;;;1.86
27715;BMP280;16051;53.024;8.630;2023-02-28T21:10:29;103157.47;;;1.86
27715;BMP280;16051;53.024;8.630;2023-02-28T21:14:32;103164.34;;;1.80
27715;BMP280;16051;53.024;8.630;2023-02-28T21:18:35;103169.06;;;1.68
27715;BMP280;16051;53.024;8.630;2023-02-28T21:22:38;103165.03;;;1.62
27715;BMP280;16051;53.024;8.630;2023-02-28T21:26:43;103164.66;;;1.63
27715;BMP280;16051;53.024;8.630;2023-02-28T21:30:45;103162.41;;;1.65
27715;BMP280;16051;53.024;8.630;2023-02-28T21:34:53;103173.47;;;1.57
27715;BMP280;16051;53.024;8.630;2023-02-28T21:38:58;103167.41;;;1.47
27715;BMP280;16051;53.024;8.630;2023-02-28T21:43:02;103170.44;;;1.30
27715;BMP280;16051;53.024;8.630;2023-02-28T21:47:04;103160.41;;;1.19
27715;BMP280;16051;53.024;8.630;2023-02-28T21:51:16;103160.13;;;1.08
27715;BMP280;16051;53.024;8.630;2023-02-28T21:55:44;103171.97;;;1.00
27715;BMP280;16051;53.024;8.630;2023-02-28T21:59:46;103176.59;;;0.99
27715;BMP280;16051;53.024;8.630;2023-02-28T22:03:49;103173.44;;;0.97
27715;BMP280;16051;53.024;8.630;2023-02-28T22:07:52;103174.47;;;0.93
27715;BMP280;16051;53.024;8.630;2023-02-28T22:11:55;103183.78;;;0.92
27715;BMP280;16051;53.024;8.630;2023-02-28T22:16:02;103177.19;;;0.93
27715;BMP280;16051;53.024;8.630;2023-02-28T22:20:05;103170.75;;;0.85
27715;BMP280;16051;53.024;8.630;2023-02-28T22:24:09;103176.91;;;0.82
27715;BMP280;16051;53.024;8.630;2023-02-28T22:28:11;103181.78;;;0.77
27715;BMP280;16051;53.024;8.630;2023-02-28T22:32:14;103176.59;;;0.72
27715;BMP280;16051;53.024;8.630;2023-02-28T22:36:17;103184.09;;;0.63
27715;BMP280;16051;53.024;8.630;2023-02-28T22:40:21;103183.41;;;0.66
27715;BMP280;16051;53.024;8.630;2023-02-28T22:44:24;103174.69;;;0.60
27715;BMP280;16051;53.024;8.630;2023-02-28T22:48:26;103173.38;;;0.54
27715;BMP280;16051;53.024;8.630;2023-02-28T22:52:28;103165.91;;;0.39
27715;BMP280;16051;53.024;8.630;2023-02-28T22:56:32;103156.47;;;0.36
27715;BMP280;16051;53.024;8.630;2023-02-28T23:00:34;103147.69;;;0.27
27715;BMP280;16051;53.024;8.630;2023-02-28T23:04:36;103150.72;;;0.26
27715;BMP280;16051;53.024;8.630;2023-02-28T23:08:38;103156.41;;;0.21
27715;BMP280;16051;53.024;8.630;2023-02-28T23:12:42;103151.78;;;0.21
27715;BMP280;16051;53.024;8.630;2023-02-28T23:16:53;103148.38;;;0.12
27715;BMP280;16051;53.024;8.630;2023-02-28T23:21:13;103164.69;;;0.12
27715;BMP280;16051;53.024;8.630;2023-02-28T23:25:15;103167.19;;;0.17
27715;BMP280;16051;53.024;8.630;2023-02-28T23:29:20;103173.09;;;0.07
27715;BMP280;16051;53.024;8.630;2023-02-28T23:33:23;103166.63;;;-0.01
27715;BMP280;16051;53.024;8.630;2023-02-28T23:37:26;103179.53;;;-0.10
27715;BMP280;16051;53.024;8.630;2023-02-28T23:41:28;103172.97;;;-0.09
27715;BMP280;16051;53.024;8.630;2023-02-28T23:45:31;103182.38;;;-0.18
27715;BMP280;16051;53.024;8.630;2023-02-28T23:49:34;103171.91;;;-0.28
27715;BMP280;16051;53.024;8.630;2023-02-28T23:53:38;103176.66;;;-0.25
27715;BMP280;16051;53.024;8.630;2023-02-28T23:57:57;103190.59;;;-0.27
